Flight Briefing for CPX820

Departure Arrival
Joint Base McGuire Dix Lakehurst (KWRI)
Click to view FAA NOTAMS
Patrick Air Force Base (KCOF)
Click to view FAA NOTAMS
Departure Time Arrival Time
N/A N/A
Aircraft Distance
B757-200SF 768nm
Departure METAR Arrival METAR
KWRI 192156Z AUTO 30007KT 10SM CLR 01/M13 A3052 RMK AO2 SLP336 T00121126 KCOF 192156Z AUTO 12012KT 10SM CLR 24/24 A3013 RMK AO2 SLP207 T02380236 $
Suggested Route
CYN226011 ACY V229 LEEAH V1 ISO J121 MILIE J103 OMN BITHO7


View recent IFR Routes data
Notes
USTRANSCOM CONTRACT FLIGHT

Charts and Procedures

Charts for KWRI
No chart available
Charts for KCOF
No chart available

Ventusky Weather




{"cat":null,"equip":null,"transponder":null,"pbn":"PBN\/","maxpax":null,"oew":"0.0","mzfw":"0.0","mtow":"0.0","mlw":"0.0","maxfuel":"0.0"} DEVELOPMENTAL TEST USE ONLY